Time;durP1;ratioP1;P1;durP2;ratioP2;P2;SDS_P1;SDS_P2;PMS_P1;PMS_P2;Temp;Humidity;BMP_temperature;BMP_pressure;BME280_temperature;BME280_humidity;BME280_pressure;Samples;Min_cycle;Max_cycle;Signal;HPM_P1;HPM_P2
2021/04/21 00:00:24;;;;;;;21.05;10.25;;;;;;;8.11;70.16;100406.59;1728371;80;27357;-60
2021/04/21 00:02:54;;;;;;;20.20;9.90;;;;;;;8.09;70.11;100408.44;1728733;81;25951;-61
2021/04/21 00:05:24;;;;;;;22.20;10.08;;;;;;;8.09;70.09;100415.11;1732094;80;26140;-61
2021/04/21 00:07:53;;;;;;;23.60;10.15;;;;;;;8.08;69.95;100417.38;1718112;81;25860;-61
2021/04/21 00:10:24;;;;;;;20.60;9.18;;;;;;;8.07;69.88;100415.17;1719385;79;26127;-60
2021/04/21 00:12:55;;;;;;;23.45;8.80;;;;;;;8.05;69.77;100417.02;1733797;81;25885;-60
2021/04/21 00:15:24;;;;;;;;;;;;;;;8.01;69.67;100414.52;1726684;80;25941;-61
2021/04/21 00:17:58;;;;;;;24.25;9.75;;;;;;;7.98;69.59;100408.83;1732303;80;25862;-60
2021/04/21 00:20:28;;;;;;;14.93;7.75;;;;;;;7.95;69.54;100408.94;1719300;80;26029;-60
2021/04/21 00:22:59;;;;;;;20.37;7.85;;;;;;;7.96;69.48;100409.81;1712464;79;25848;-62
2021/04/21 00:25:31;;;;;;;24.12;8.58;;;;;;;7.94;69.39;100407.20;1730688;80;26421;-61
2021/04/21 00:28:05;;;;;;;26.77;9.53;;;;;;;7.91;69.32;100409.11;1723380;80;25934;-60
2021/04/21 00:30:36;;;;;;;23.32;8.88;;;;;;;7.92;69.32;100407.72;1723136;80;25928;-60
2021/04/21 00:33:06;;;;;;;23.05;10.08;;;;;;;7.92;69.22;100409.05;1727285;80;25925;-61
2021/04/21 00:35:42;;;;;;;30.60;11.70;;;;;;;7.90;69.11;100405.57;1728988;79;25856;-60
2021/04/21 00:38:17;;;;;;;40.98;12.95;;;;;;;7.87;69.05;100402.14;1736062;79;27882;-60
2021/04/21 00:40:50;;;;;;;45.65;13.90;;;;;;;7.83;69.02;100402.72;1750390;80;25887;-60
2021/04/21 00:43:47;;;;;;;49.03;14.80;;;;;;;7.80;69.00;100403.70;1734096;80;26110;-60
2021/04/21 00:46:32;;;;;;;84.90;21.85;;;;;;;7.78;68.95;100399.37;1718739;80;26584;-60
2021/04/21 00:49:14;;;;;;;105.12;28.45;;;;;;;7.75;68.93;100394.15;1725722;81;25852;-60
2021/04/21 00:51:55;;;;;;;;;;;;;;;7.71;68.86;100389.84;1730191;80;25993;-60
2021/04/21 00:54:43;;;;;;;40.88;13.62;;;;;;;7.66;68.91;100390.02;1706849;80;25806;-60
2021/04/21 00:57:36;;;;;;;51.80;13.93;;;;;;;7.61;68.89;100386.63;1726864;80;25921;-60
2021/04/21 01:00:18;;;;;;;35.55;11.78;;;;;;;7.56;68.85;100379.26;1730996;80;25999;-60
2021/04/21 01:03:05;;;;;;;28.47;11.38;;;;;;;7.55;68.86;100381.98;1707091;82;25871;-60
2021/04/21 01:05:41;;;;;;;24.30;10.65;;;;;;;7.52;68.85;100384.29;1700350;80;26088;-61
2021/04/21 01:08:13;;;;;;;27.00;10.23;;;;;;;7.49;68.81;100383.94;1703114;81;26637;-61
2021/04/21 01:10:50;;;;;;;30.62;10.10;;;;;;;7.46;68.87;100379.17;1689072;80;25999;-60
2021/04/21 01:13:19;;;;;;;33.80;12.58;;;;;;;7.43;68.89;100386.81;1690975;80;25850;-60
2021/04/21 01:15:49;;;;;;;31.30;10.45;;;;;;;7.39;68.89;100383.84;1724803;80;25844;-60
2021/04/21 01:18:18;;;;;;;25.27;9.95;;;;;;;7.37;68.88;100384.36;1702218;80;27057;-60
2021/04/21 01:20:54;;;;;;;23.50;10.03;;;;;;;7.31;68.86;100379.23;1708476;80;25956;-60
2021/04/21 01:23:46;;;;;;;19.67;9.48;;;;;;;7.27;68.92;100380.27;1709626;80;26610;-61
2021/04/21 01:26:44;;;;;;;23.90;9.75;;;;;;;7.23;68.90;100376.42;1697815;80;26004;-60
2021/04/21 01:29:29;;;;;;;28.45;9.93;;;;;;;7.15;68.96;100376.22;1699602;80;25823;-61
2021/04/21 01:32:01;;;;;;;31.65;10.48;;;;;;;7.09;69.01;100372.89;1718111;81;26224;-61
2021/04/21 01:34:32;;;;;;;21.48;9.98;;;;;;;7.03;69.08;100367.30;1702584;80;26234;-60
2021/04/21 01:37:04;;;;;;;24.40;9.68;;;;;;;7.00;69.16;100367.41;1711830;80;26007;-60
2021/04/21 01:39:39;;;;;;;31.90;10.55;;;;;;;6.97;69.16;100373.30;1706994;80;25985;-61
2021/04/21 01:42:10;;;;;;;21.85;10.82;;;;;;;6.93;69.25;100370.31;1703253;81;26415;-60
2021/04/21 01:44:42;;;;;;;20.68;10.23;;;;;;;6.88;69.32;100367.80;1711424;80;25860;-60
2021/04/21 01:47:15;;;;;;;25.20;9.53;;;;;;;6.84;69.37;100363.03;1692819;80;26077;-60
2021/04/21 01:49:51;;;;;;;20.65;10.53;;;;;;;6.82;69.40;100369.33;1703796;80;25915;-61
2021/04/21 01:52:52;;;;;;;24.67;11.15;;;;;;;6.77;69.40;100365.48;1717161;80;25868;-60
2021/04/21 01:55:26;;;;;;;26.57;10.35;;;;;;;6.75;69.48;100362.47;1717831;80;26063;-60
2021/04/21 01:58:30;;;;;;;17.82;9.65;;;;;;;6.71;69.54;100359.02;1716596;81;25899;-61
2021/04/21 02:01:12;;;;;;;23.27;11.20;;;;;;;6.72;69.58;100363.43;1719071;81;25872;-61
2021/04/21 02:03:45;;;;;;;36.68;12.95;;;;;;;6.70;69.58;100366.61;1715409;80;25944;-61
2021/04/21 02:06:39;;;;;;;31.02;12.58;;;;;;;6.67;69.57;100373.36;1719449;80;26172;-61
2021/04/21 02:09:52;;;;;;;27.30;11.30;;;;;;;6.61;69.54;100370.02;1719576;80;26054;-60
2021/04/21 02:12:52;;;;;;;21.30;10.72;;;;;;;6.55;69.62;100376.41;1711268;80;27635;-60
2021/04/21 02:15:28;;;;;;;39.40;12.43;;;;;;;6.48;69.74;100374.39;1717740;80;26039;-60
2021/04/21 02:18:34;;;;;;;39.60;14.70;;;;;;;6.48;69.83;100373.06;1720414;81;25891;-60
2021/04/21 02:21:27;;;;;;;55.48;19.65;;;;;;;6.45;69.83;100367.83;1721760;81;25944;-60
2021/04/21 02:24:15;;;;;;;55.30;19.75;;;;;;;6.42;69.85;100371.05;1721253;80;25997;-60
2021/04/21 02:26:51;;;;;;;50.40;18.20;;;;;;;6.40;69.86;100368.44;1697439;81;26262;-60
2021/04/21 02:29:45;;;;;;;44.05;17.40;;;;;;;6.34;69.85;100365.09;1685253;80;26132;-60
2021/04/21 02:32:34;;;;;;;33.85;14.53;;;;;;;6.29;69.94;100367.02;1724096;81;26567;-61
2021/04/21 02:35:45;;;;;;;39.90;15.53;;;;;;;6.24;70.03;100368.95;1721820;81;25918;-60
2021/04/21 02:38:45;;;;;;;30.30;14.80;;;;;;;6.18;70.08;100362.02;1720390;81;25844;-60
2021/04/21 02:41:20;;;;;;;31.20;14.68;;;;;;;6.09;70.08;100364.49;1717876;80;26340;-61
2021/04/21 02:44:19;;;;;;;31.17;15.10;;;;;;;6.04;70.15;100361.55;1709924;81;26176;-61
2021/04/21 02:47:22;;;;;;;32.65;14.85;;;;;;;5.99;70.22;100355.49;1707904;81;25881;-60
2021/04/21 02:50:02;;;;;;;28.07;13.85;;;;;;;5.92;70.33;100355.26;1721201;81;26401;-60
2021/04/21 02:53:09;;;;;;;31.70;14.68;;;;;;;5.85;70.32;100348.75;1713507;80;26554;-61
2021/04/21 02:56:09;;;;;;;34.23;14.58;;;;;;;5.79;70.44;100351.59;1714683;80;27946;-61
2021/04/21 02:59:14;;;;;;;39.78;16.77;;;;;;;5.71;70.44;100343.41;1702125;80;26442;-60
2021/04/21 03:02:11;;;;;;;37.00;16.23;;;;;;;5.65;70.58;100349.77;1725150;80;25840;-61
2021/04/21 03:04:47;;;;;;;44.13;18.35;;;;;;;5.61;70.72;100340.59;1715681;80;25913;-60
2021/04/21 03:07:31;;;;;;;62.93;23.22;;;;;;;5.56;70.81;100351.36;1724493;80;26400;-60
2021/04/21 03:10:15;;;;;;;53.33;22.13;;;;;;;5.53;70.86;100344.34;1684621;80;27996;-60
2021/04/21 03:13:18;;;;;;;43.38;20.17;;;;;;;5.50;70.92;100348.41;1730188;81;25817;-60
2021/04/21 03:15:50;;;;;;;46.90;21.75;;;;;;;5.48;71.01;100347.58;1709356;81;25859;-60
2021/04/21 03:18:21;;;;;;;42.80;20.70;;;;;;;5.47;71.11;100344.51;1703430;80;25890;-60
2021/04/21 03:20:59;;;;;;;38.25;18.60;;;;;;;5.46;71.16;100340.56;1725708;81;25887;-60
2021/04/21 03:23:29;;;;;;;41.85;19.25;;;;;;;5.45;71.21;100339.69;1729374;80;27005;-61
2021/04/21 03:26:00;;;;;;;30.00;15.90;;;;;;;5.44;71.24;100345.05;1726111;81;26401;-60
2021/04/21 03:28:31;;;;;;;38.85;18.67;;;;;;;5.43;71.27;100343.30;1725874;80;25977;-60
2021/04/21 03:31:03;;;;;;;34.85;16.95;;;;;;;5.41;71.32;100342.02;1713783;81;26726;-61
2021/04/21 03:33:46;;;;;;;30.80;16.55;;;;;;;5.40;71.41;100340.73;1710683;80;25951;-60
2021/04/21 03:36:18;;;;;;;28.25;15.32;;;;;;;5.37;71.47;100340.36;1720239;81;25928;-61
2021/04/21 03:38:48;;;;;;;28.15;15.08;;;;;;;5.35;71.49;100344.84;1726621;81;26765;-61
2021/04/21 03:41:20;;;;;;;34.03;16.40;;;;;;;5.32;71.48;100340.94;1713221;81;25861;-61
2021/04/21 03:43:48;;;;;;;29.52;15.78;;;;;;;5.27;71.49;100345.50;1716290;81;25879;-60
2021/04/21 03:46:17;;;;;;;37.30;17.70;;;;;;;5.23;71.61;100346.03;1716516;81;26328;-60
2021/04/21 03:48:46;;;;;;;33.85;16.52;;;;;;;5.19;71.75;100337.77;1721171;81;27546;-61
2021/04/21 03:51:18;;;;;;;25.72;15.38;;;;;;;5.17;71.83;100340.05;1726738;81;26039;-60
2021/04/21 03:53:48;;;;;;;33.83;15.93;;;;;;;5.15;71.82;100352.49;1718346;81;26541;-61
2021/04/21 03:56:21;;;;;;;33.80;17.37;;;;;;;5.11;71.93;100345.06;1718316;81;25965;-60
2021/04/21 03:58:54;;;;;;;41.83;17.90;;;;;;;5.08;71.98;100341.61;1724996;81;25926;-60
2021/04/21 04:01:25;;;;;;;36.33;18.73;;;;;;;5.07;72.04;100343.85;1720513;80;25932;-60
2021/04/21 04:03:56;;;;;;;41.73;18.95;;;;;;;5.05;72.10;100341.69;1713392;81;25890;-61
2021/04/21 04:06:39;;;;;;;36.15;19.45;;;;;;;5.04;72.16;100345.26;1728968;80;25861;-60
2021/04/21 04:09:09;;;;;;;36.65;18.55;;;;;;;5.02;72.21;100346.63;1713530;81;25901;-61
2021/04/21 04:11:46;;;;;;;33.37;19.30;;;;;;;5.03;72.31;100350.16;1715897;80;25911;-61
2021/04/21 04:14:21;;;;;;;34.75;18.75;;;;;;;5.02;72.37;100340.44;1720382;81;28215;-61
2021/04/21 04:16:53;;;;;;;35.08;18.27;;;;;;;5.01;72.44;100339.56;1732528;80;26898;-60
2021/04/21 04:19:22;;;;;;;38.23;19.15;;;;;;;5.01;72.45;100338.23;1729094;80;25903;-60
2021/04/21 04:22:13;;;;;;;47.73;21.00;;;;;;;5.02;72.54;100342.64;1712389;80;26862;-61
2021/04/21 04:24:45;;;;;;;63.20;24.90;;;;;;;5.01;72.61;100347.53;1718421;80;25874;-61
2021/04/21 04:27:20;;;;;;;62.85;26.07;;;;;;;5.03;72.65;100354.13;1721829;80;26677;-60
2021/04/21 04:29:51;;;;;;;70.42;27.98;;;;;;;5.03;72.67;100342.19;1713759;81;26809;-60
2021/04/21 04:32:23;;;;;;;47.45;21.35;;;;;;;5.03;72.67;100346.17;1725936;80;26389;-61
2021/04/21 04:34:59;;;;;;;40.98;20.23;;;;;;;5.02;72.63;100350.61;1724244;81;25702;-60
2021/04/21 04:37:33;;;;;;;49.23;20.20;;;;;;;5.04;72.77;100344.80;1722853;80;25655;-60
2021/04/21 04:40:07;;;;;;;54.98;22.15;;;;;;;5.07;72.90;100349.16;1727650;81;25987;-61
2021/04/21 04:42:37;;;;;;;59.88;23.25;;;;;;;5.08;72.93;100351.78;1723696;80;26004;-61
2021/04/21 04:45:09;;;;;;;64.55;24.63;;;;;;;5.11;72.97;100350.83;1720671;81;26547;-60
2021/04/21 04:47:46;;;;;;;134.80;40.33;;;;;;;5.12;73.07;100352.12;1709145;80;26437;-60
2021/04/21 04:50:19;;;;;;;208.65;52.50;;;;;;;5.14;73.11;100352.95;1697632;81;25874;-60
2021/04/21 04:52:52;;;;;;;157.18;41.02;;;;;;;5.16;73.25;100356.89;1700784;80;27784;-60
2021/04/21 04:55:23;;;;;;;106.63;31.55;;;;;;;5.18;73.26;100356.40;1699022;80;25985;-60
2021/04/21 04:57:53;;;;;;;;;;;;;;;5.20;73.35;100354.09;1698319;81;25738;-60
2021/04/21 05:00:27;;;;;;;111.50;33.78;;;;;;;5.22;73.47;100361.56;1693014;81;25951;-60
2021/04/21 05:03:23;;;;;;;75.72;24.07;;;;;;;5.25;73.51;100361.06;1708393;81;26488;-60
2021/04/21 05:05:58;;;;;;;41.95;17.90;;;;;;;5.28;73.52;100365.84;1707172;82;26179;-60
2021/04/21 05:08:46;;;;;;;53.95;17.73;;;;;;;5.31;73.64;100365.77;1703799;80;26234;-60
2021/04/21 05:11:19;;;;;;;42.53;15.45;;;;;;;5.36;73.70;100370.50;1713461;81;25817;-61
2021/04/21 05:13:51;;;;;;;37.70;16.02;;;;;;;5.39;73.88;100373.08;1711905;81;25761;-60
2021/04/21 05:16:58;;;;;;;27.13;14.50;;;;;;;5.41;73.96;100363.28;1701764;80;25486;-60
2021/04/21 05:19:43;;;;;;;35.45;14.60;;;;;;;5.46;74.14;100361.83;1693415;80;27448;-60
2021/04/21 05:22:44;;;;;;;34.60;14.30;;;;;;;5.47;74.17;100368.43;1699326;80;26016;-60
2021/04/21 05:25:34;;;;;;;35.38;15.80;;;;;;;5.50;74.24;100365.69;1696147;80;25857;-59
2021/04/21 05:28:24;;;;;;;32.38;14.68;;;;;;;5.54;74.33;100367.35;1696736;81;26352;-59
2021/04/21 05:31:31;;;;;;;40.45;13.62;;;;;;;5.59;74.37;100369.02;1728377;80;25876;-60
2021/04/21 05:34:53;;;;;;;36.30;12.88;;;;;;;5.65;74.38;100366.19;1700695;80;27766;-62
2021/04/21 05:38:13;;;;;;;41.40;14.73;;;;;;;5.70;74.39;100370.92;1695545;81;25922;-59
2021/04/21 05:41:14;;;;;;;35.20;14.15;;;;;;;5.74;74.40;100366.80;1707738;80;25942;-59
2021/04/21 05:43:48;;;;;;;;;;;;;;;5.79;74.44;100368.00;1693840;80;25908;-59
2021/04/21 05:46:36;;;;;;;36.08;13.22;;;;;;;5.83;74.51;100374.98;1701995;82;26364;-60
2021/04/21 05:49:14;;;;;;;35.25;15.70;;;;;;;5.84;74.60;100370.95;1704378;80;27461;-59
2021/04/21 05:52:09;;;;;;;35.75;14.20;;;;;;;5.91;74.61;100376.13;1699524;80;26118;-60
2021/04/21 05:55:25;;;;;;;30.50;14.38;;;;;;;5.95;74.66;100373.33;1695670;80;25748;-62
2021/04/21 05:58:20;;;;;;;29.77;12.28;;;;;;;5.98;74.63;100371.91;1703797;80;26513;-60
2021/04/21 06:01:15;;;;;;;39.50;15.45;;;;;;;6.07;74.77;100375.64;1696371;82;25965;-59
2021/04/21 06:03:47;;;;;;;29.23;14.55;;;;;;;6.14;74.73;100373.67;1706137;81;27808;-59
2021/04/21 06:06:16;;;;;;;38.67;15.13;;;;;;;6.17;74.65;100373.12;1711508;82;26478;-60
2021/04/21 06:08:44;;;;;;;45.60;15.38;;;;;;;6.24;74.74;100376.93;1698142;82;26730;-59
2021/04/21 06:11:26;;;;;;;34.27;14.93;;;;;;;6.28;74.65;100378.12;1674295;80;25900;-59
2021/04/21 06:14:01;;;;;;;35.25;14.30;;;;;;;6.30;74.70;100378.95;1713088;80;25985;-60
2021/04/21 06:16:31;;;;;;;35.92;14.30;;;;;;;6.37;74.70;100378.30;1705903;80;25802;-60
2021/04/21 06:19:02;;;;;;;28.07;13.90;;;;;;;6.40;74.62;100374.22;1685441;81;25909;-60
2021/04/21 06:21:39;;;;;;;33.98;14.60;;;;;;;6.44;74.59;100374.08;1702880;80;25979;-61
2021/04/21 06:24:26;;;;;;;36.30;13.93;;;;;;;6.48;74.64;100377.06;1716248;82;26138;-60
2021/04/21 06:27:11;;;;;;;35.43;14.78;;;;;;;6.55;74.64;100379.53;1737825;80;25759;-60
2021/04/21 06:29:40;;;;;;;34.05;14.53;;;;;;;6.61;74.57;100370.02;1724963;80;28511;-60
2021/04/21 06:32:16;;;;;;;39.15;14.65;;;;;;;6.70;74.57;100371.93;1724690;80;26330;-61
2021/04/21 06:34:47;;;;;;;37.45;14.43;;;;;;;6.78;74.52;100377.02;1693199;80;25722;-62
2021/04/21 06:37:17;;;;;;;30.12;14.33;;;;;;;6.82;74.41;100374.20;1711325;80;26413;-61
2021/04/21 06:39:45;;;;;;;29.05;13.28;;;;;;;6.92;74.44;100384.56;1724991;80;26474;-61
2021/04/21 06:42:19;;;;;;;39.38;16.27;;;;;;;6.95;74.31;100380.47;1734249;80;28510;-61
2021/04/21 06:44:52;;;;;;;27.62;13.85;;;;;;;6.98;74.14;100379.91;1726968;81;25835;-62
2021/04/21 06:47:27;;;;;;;35.08;15.53;;;;;;;7.03;74.06;100377.96;1737905;79;25800;-62
2021/04/21 06:50:05;;;;;;;35.28;15.90;;;;;;;7.10;74.01;100379.50;1721893;81;25749;-62
2021/04/21 06:52:41;;;;;;;29.42;14.60;;;;;;;7.19;73.94;100370.32;1724937;80;25828;-62
2021/04/21 06:55:13;;;;;;;33.25;13.83;;;;;;;7.24;73.82;100375.50;1734291;80;27810;-62
2021/04/21 06:57:42;;;;;;;39.70;16.65;;;;;;;7.28;73.73;100375.34;1698553;81;25859;-62
2021/04/21 07:00:21;;;;;;;78.67;21.87;;;;;;;7.36;73.67;100375.95;1701033;81;25834;-63
2021/04/21 07:02:52;;;;;;;32.93;14.28;;;;;;;7.46;73.63;100377.38;1697034;82;26015;-61
2021/04/21 07:05:40;;;;;;;34.90;15.75;;;;;;;7.53;73.37;100381.16;1714068;80;25850;-62
2021/04/21 07:08:19;;;;;;;42.15;17.48;;;;;;;7.55;73.23;100381.52;1736179;80;25963;-61
2021/04/21 07:10:53;;;;;;;35.63;17.30;;;;;;;7.57;73.15;100376.13;1739451;79;25816;-60
2021/04/21 07:13:31;;;;;;;34.30;16.40;;;;;;;7.62;73.02;100376.84;1705061;80;25798;-59
2021/04/21 07:16:03;;;;;;;34.70;16.00;;;;;;;7.68;72.93;100376.62;1726828;80;26517;-59
2021/04/21 07:18:38;;;;;;;32.75;15.40;;;;;;;7.70;72.81;100375.64;1721088;80;26536;-59
2021/04/21 07:21:08;;;;;;;38.98;18.00;;;;;;;7.76;72.74;100381.22;1719730;80;26615;-60
2021/04/21 07:23:38;;;;;;;32.08;15.50;;;;;;;7.81;72.58;100378.75;1722671;80;26480;-60
2021/04/21 07:26:07;;;;;;;41.55;17.95;;;;;;;7.89;72.41;100381.14;1723355;80;26612;-60
2021/04/21 07:28:39;;;;;;;37.83;16.48;;;;;;;7.95;72.30;100378.25;1730706;80;26421;-60
2021/04/21 07:31:17;;;;;;;42.70;16.57;;;;;;;8.04;72.32;100377.91;1727063;80;25967;-61
2021/04/21 07:33:48;;;;;;;46.00;17.95;;;;;;;8.15;72.17;100383.72;1730183;81;27055;-61
2021/04/21 07:36:23;;;;;;;38.67;16.95;;;;;;;8.21;72.03;100369.73;1723190;80;26551;-63
2021/04/21 07:39:05;;;;;;;41.10;15.55;;;;;;;8.26;71.97;100369.97;1735719;79;26117;-61
2021/04/21 07:41:48;;;;;;;34.67;16.52;;;;;;;8.36;71.93;100374.52;1731713;80;26408;-61
2021/04/21 07:44:49;;;;;;;44.77;17.37;;;;;;;8.41;71.75;100372.08;1729883;80;25946;-60
2021/04/21 07:47:11;;;;;;;38.88;18.92;;;;;;;8.50;71.73;100366.84;1714652;81;27945;-62
2021/04/21 07:49:47;;;;;;;41.88;18.57;;;;;;;8.62;71.65;100362.36;1694884;81;25794;-61
2021/04/21 07:52:32;;;;;;;33.50;16.77;;;;;;;8.72;71.50;100374.42;1705474;81;25843;-62
2021/04/21 07:55:17;;;;;;;39.85;16.77;;;;;;;8.78;71.33;100367.48;1669729;83;25876;-62
2021/04/21 07:58:07;;;;;;;44.05;18.07;;;;;;;8.87;71.28;100369.39;1692911;83;25821;-65
2021/04/21 08:00:35;;;;;;;36.80;15.93;;;;;;;8.94;71.06;100366.87;1673175;83;28493;-61
2021/04/21 08:03:05;;;;;;;34.45;15.65;;;;;;;9.04;71.10;100361.55;1661789;83;25899;-61
2021/04/21 08:05:33;;;;;;;34.73;14.75;;;;;;;9.14;71.00;100362.03;1686699;83;26265;-61
2021/04/21 08:08:03;;;;;;;37.28;16.82;;;;;;;9.24;70.91;100360.71;1691852;82;26165;-61
2021/04/21 08:10:36;;;;;;;40.92;16.75;;;;;;;9.31;70.76;100363.05;1688129;81;26092;-61
2021/04/21 08:13:08;;;;;;;42.35;15.03;;;;;;;9.43;70.54;100361.66;1688190;81;27824;-61
2021/04/21 08:15:39;;;;;;;40.35;15.35;;;;;;;9.53;70.45;100363.47;1697355;81;25938;-61
2021/04/21 08:18:12;;;;;;;;;;;;;;;9.63;70.26;100365.68;1697948;81;25785;-60
2021/04/21 08:20:44;;;;;;;36.05;16.35;;;;;;;9.73;69.92;100358.98;1696124;81;25802;-77
2021/04/21 08:23:19;;;;;;;34.55;17.15;;;;;;;9.83;69.87;100363.46;1699047;83;25830;-60
2021/04/21 08:25:48;;;;;;;38.00;16.27;;;;;;;9.96;69.54;100359.77;1685801;82;27795;-60
2021/04/21 08:28:16;;;;;;;38.13;16.48;;;;;;;10.04;69.47;100357.13;1704747;82;25909;-62
2021/04/21 08:30:55;;;;;;;35.83;15.10;;;;;;;10.12;69.15;100355.91;1696618;81;26435;-61
2021/04/21 08:33:22;;;;;;;32.05;15.35;;;;;;;10.22;68.99;100366.16;1693424;81;25864;-61
2021/04/21 08:35:51;;;;;;;38.53;16.48;;;;;;;10.32;68.87;100368.81;1691062;82;26170;-61
2021/04/21 08:38:19;;;;;;;39.13;16.87;;;;;;;10.39;68.79;100364.04;1699114;81;28391;-62
2021/04/21 08:40:47;;;;;;;38.42;16.67;;;;;;;10.50;68.52;100368.86;1692670;83;25820;-62
2021/04/21 08:43:19;;;;;;;48.75;16.62;;;;;;;10.57;68.37;100364.48;1703153;81;25972;-61
2021/04/21 08:45:47;;;;;;;34.15;15.72;;;;;;;10.66;68.16;100374.76;1687421;83;25980;-61
2021/04/21 08:48:17;;;;;;;47.00;18.98;;;;;;;10.72;67.92;100371.78;1687499;81;25970;-62
2021/04/21 08:50:51;;;;;;;34.30;15.43;;;;;;;10.81;67.77;100378.52;1723158;80;27678;-62
2021/04/21 08:53:21;;;;;;;31.42;16.62;;;;;;;10.91;67.29;100374.44;1722733;80;25946;-61
2021/04/21 08:55:50;;;;;;;36.85;17.60;;;;;;;10.96;66.94;100371.06;1724553;80;26065;-63
2021/04/21 08:58:21;;;;;;;35.75;17.85;;;;;;;10.98;66.96;100369.17;1727500;80;26226;-61
2021/04/21 09:00:49;;;;;;;;;;;;;;;11.02;66.93;100373.91;1739629;81;26746;-63
2021/04/21 09:03:19;;;;;;;49.50;20.55;;;;;;;11.08;66.89;100369.58;1721704;80;27584;-63
2021/04/21 09:05:46;;;;;;;46.30;20.75;;;;;;;11.18;66.72;100374.88;1716776;80;26250;-62
2021/04/21 09:08:14;;;;;;;39.18;18.30;;;;;;;11.26;66.41;100372.69;1715314;80;25795;-61
2021/04/21 09:10:45;;;;;;;43.83;21.68;;;;;;;11.34;66.29;100369.14;1717081;80;26723;-61
2021/04/21 09:13:15;;;;;;;37.23;18.85;;;;;;;11.40;65.95;100370.64;1729704;80;25801;-61
2021/04/21 09:15:44;;;;;;;35.38;18.85;;;;;;;11.44;65.75;100363.30;1725682;80;26882;-61
2021/04/21 09:18:17;;;;;;;36.98;19.57;;;;;;;11.56;65.83;100378.30;1731315;80;26601;-62
2021/04/21 09:20:48;;;;;;;45.25;19.65;;;;;;;11.60;65.76;100362.91;1736449;80;25867;-60
2021/04/21 09:23:19;;;;;;;45.73;18.92;;;;;;;11.62;65.71;100361.02;1723800;80;26111;-62
2021/04/21 09:25:54;;;;;;;40.10;20.05;;;;;;;11.71;65.73;100374.83;1735977;80;26749;-62
2021/04/21 09:28:23;;;;;;;36.05;18.67;;;;;;;11.81;65.69;100360.95;1721410;80;25936;-64
2021/04/21 09:30:59;;;;;;;43.45;20.97;;;;;;;11.87;65.22;100371.36;1724962;81;26277;-63
2021/04/21 09:33:28;;;;;;;48.38;19.37;;;;;;;11.90;65.10;100361.33;1722681;80;26210;-63
2021/04/21 09:35:57;;;;;;;34.10;18.70;;;;;;;11.98;64.97;100364.48;1722991;80;26468;-62
2021/04/21 09:38:28;;;;;;;42.10;19.73;;;;;;;12.08;64.74;100372.04;1724621;80;26193;-63
2021/04/21 09:41:18;;;;;;;42.13;20.23;;;;;;;12.11;64.58;100362.00;1723482;81;27913;-61
2021/04/21 09:43:46;;;;;;;34.65;19.45;;;;;;;12.17;64.84;100360.80;1714266;81;25878;-63
2021/04/21 09:46:20;;;;;;;30.95;17.48;;;;;;;12.21;64.60;100359.20;1721757;80;25991;-62
2021/04/21 09:48:48;;;;;;;40.33;18.40;;;;;;;12.28;64.11;100367.80;1711213;81;25946;-63
2021/04/21 09:51:23;;;;;;;37.33;19.40;;;;;;;12.33;64.12;100359.00;1719220;81;26495;-62
2021/04/21 09:53:51;;;;;;;41.85;19.12;;;;;;;12.38;63.54;100355.59;1719704;81;27979;-60
2021/04/21 09:56:25;;;;;;;35.95;19.87;;;;;;;12.39;63.68;100347.05;1708800;80;26384;-60
2021/04/21 09:59:00;;;;;;;44.70;19.57;;;;;;;12.44;63.49;100349.88;1693939;82;25954;-60
2021/04/21 10:01:39;;;;;;;39.25;20.08;;;;;;;12.51;63.59;100340.52;1702879;80;25930;-61
2021/04/21 10:04:12;;;;;;;35.65;20.02;;;;;;;12.57;63.21;100356.30;1717589;81;26536;-62
2021/04/21 10:06:44;;;;;;;35.98;18.85;;;;;;;12.63;62.92;100352.40;1714024;80;27814;-61
2021/04/21 10:09:26;;;;;;;34.73;18.52;;;;;;;12.70;62.43;100347.06;1692858;81;26842;-60
2021/04/21 10:12:18;;;;;;;37.98;19.60;;;;;;;12.71;62.68;100342.08;1712477;81;25783;-61
2021/04/21 10:15:09;;;;;;;33.15;17.57;;;;;;;12.81;62.83;100342.41;1715755;81;26048;-63
2021/04/21 10:17:42;;;;;;;38.00;16.10;;;;;;;12.89;62.75;100342.84;1716602;80;25861;-62
2021/04/21 10:20:14;;;;;;;35.43;17.40;;;;;;;13.01;62.04;100339.41;1704561;81;26274;-61
2021/04/21 10:22:48;;;;;;;30.88;15.43;;;;;;;13.10;61.52;100340.70;1706485;80;26408;-62
2021/04/21 10:25:17;;;;;;;31.85;15.70;;;;;;;13.21;61.74;100340.48;1727798;80;26614;-62
2021/04/21 10:27:45;;;;;;;27.62;15.93;;;;;;;13.31;61.11;100337.64;1699157;81;25892;-63
2021/04/21 10:30:14;;;;;;;29.27;15.65;;;;;;;13.35;60.75;100342.36;1705669;81;25957;-61
2021/04/21 10:32:42;;;;;;;33.78;15.38;;;;;;;13.39;59.70;100341.70;1736058;80;25900;-61
2021/04/21 10:35:15;;;;;;;26.82;15.13;;;;;;;13.42;59.79;100337.00;1729648;80;25816;-64
2021/04/21 10:37:48;;;;;;;30.10;16.90;;;;;;;13.50;59.42;100332.02;1733041;80;25872;-63
2021/04/21 10:40:29;;;;;;;;;;;;;;;13.65;59.50;100335.61;1723184;80;25736;-62
2021/04/21 10:43:02;;;;;;;34.15;16.40;;;;;;;13.79;59.64;100329.38;1724786;81;25895;-63
2021/04/21 10:45:31;;;;;;;27.73;15.30;;;;;;;13.88;59.58;100332.85;1726479;80;28539;-63
2021/04/21 10:48:00;;;;;;;37.48;17.32;;;;;;;13.88;58.73;100329.68;1719535;81;25873;-61
2021/04/21 10:50:45;;;;;;;30.50;17.05;;;;;;;13.93;59.38;100331.61;1732605;79;25828;-61
2021/04/21 10:53:33;;;;;;;36.42;17.95;;;;;;;14.01;59.04;100328.44;1720934;80;25991;-62
2021/04/21 10:56:22;;;;;;;31.15;16.60;;;;;;;14.11;59.30;100327.38;1725009;80;25864;-62
2021/04/21 10:58:54;;;;;;;32.30;19.55;;;;;;;14.27;59.34;100325.44;1727953;80;27923;-63
2021/04/21 11:01:38;;;;;;;34.60;19.62;;;;;;;14.42;58.92;100323.63;1732902;80;25794;-64
2021/04/21 11:04:12;;;;;;;38.70;18.42;;;;;;;14.40;58.71;100321.00;1730786;79;27996;-63
2021/04/21 11:06:42;;;;;;;32.88;17.77;;;;;;;14.49;58.63;100325.83;1721581;80;27971;-63
2021/04/21 11:09:12;;;;;;;29.98;17.80;;;;;;;14.56;58.79;100318.21;1732553;79;25947;-62
2021/04/21 11:11:49;;;;;;;36.38;17.82;;;;;;;14.72;58.98;100317.59;1718884;80;25870;-62
2021/04/21 11:14:38;;;;;;;30.40;14.45;;;;;;;14.86;58.26;100323.43;1721352;81;25923;-62
2021/04/21 11:17:12;;;;;;;19.57;13.30;;;;;;;14.98;57.35;100319.05;1721807;80;25893;-62
2021/04/21 11:19:43;;;;;;;32.03;15.85;;;;;;;15.09;56.28;100333.56;1727200;80;26436;-62
2021/04/21 11:22:21;;;;;;;30.30;16.65;;;;;;;15.06;56.52;100318.92;1730678;79;26216;-62
2021/04/21 11:25:22;;;;;;;25.00;13.28;;;;;;;15.14;57.11;100311.17;1698617;81;28061;-64
2021/04/21 11:27:52;;;;;;;22.80;12.70;;;;;;;15.30;55.18;100305.59;1710938;81;25871;-61
2021/04/21 11:30:39;;;;;;;23.47;12.82;;;;;;;15.35;54.96;100325.05;1719658;80;25792;-64
2021/04/21 11:33:08;;;;;;;25.97;13.15;;;;;;;15.32;54.44;100310.89;1710111;81;25935;-63
2021/04/21 11:35:37;;;;;;;28.32;11.33;;;;;;;15.35;55.04;100313.39;1723651;80;26517;-63
2021/04/21 11:38:05;;;;;;;24.85;11.15;;;;;;;15.47;53.85;100313.41;1715220;81;27858;-63
2021/04/21 11:40:33;;;;;;;20.68;10.75;;;;;;;15.60;54.18;100305.84;1712261;80;26236;-63
2021/04/21 11:43:15;;;;;;;21.00;11.28;;;;;;;15.73;54.07;100306.69;1716256;81;25763;-62
2021/04/21 11:45:44;;;;;;;23.05;11.05;;;;;;;15.83;53.63;100305.93;1706864;80;26316;-63
2021/04/21 11:48:18;;;;;;;17.73;9.45;;;;;;;15.89;53.42;100299.23;1724084;81;25828;-62
2021/04/21 11:50:49;;;;;;;17.27;9.38;;;;;;;16.02;52.64;100303.28;1725638;80;27576;-62
2021/04/21 11:53:20;;;;;;;;;;;;;;;16.08;52.06;100308.25;1728569;81;25779;-62
2021/04/21 11:56:02;;;;;;;18.32;9.45;;;;;;;16.23;52.25;100301.25;1721106;80;25877;-62
2021/04/21 11:58:37;;;;;;;21.33;9.43;;;;;;;16.37;52.06;100300.25;1717648;80;25828;-62
2021/04/21 12:01:10;;;;;;;15.90;8.00;;;;;;;16.61;51.66;100301.65;1738697;79;26784;-62
2021/04/21 12:03:42;;;;;;;14.63;7.47;;;;;;;16.73;50.53;100299.42;1729835;80;25825;-63